Saturday, November 18, 2017, 6:54 AM EST
Back to Local

KFME, Fort Meade / Tipton

Location: Laurel, MD, United States Lat: 39.083
Local Time: 6:54 AM EST (11:54 GMT) Lon: -76.767
Time Zone: US/Eastern Elev: 150 ft

Show me the last for .
Show Decoded

2017-11-18 06:24 METAR KFME 181124Z AUTO 19003KT 10SM CLR M02/M02 A2998 RMK AO1 =
2017-11-18 06:06 METAR KFME 181106Z AUTO 00000KT 10SM CLR M02/M02 A2998 RMK AO1 =
2017-11-18 05:45 METAR KFME 181045Z AUTO 15003KT 10SM CLR M02/M02 A2998 RMK AO1 =
2017-11-18 05:24 METAR KFME 181024Z AUTO 00000KT 10SM CLR M02/M02 A3000 RMK AO1 =
2017-11-18 05:06 METAR KFME 181006Z AUTO 00000KT 10SM CLR M02/M02 A3002 RMK AO1 =
2017-11-18 04:45 METAR KFME 180945Z AUTO 00000KT 10SM CLR M02/M03 A3002 RMK AO1 =
2017-11-18 04:24 METAR KFME 180924Z AUTO 00000KT 10SM CLR M02/M02 A3002 RMK AO1 =
2017-11-18 04:06 METAR KFME 180906Z AUTO 00000KT 10SM CLR M02/M03 A3003 RMK AO1 =
2017-11-18 03:45 METAR KFME 180845Z AUTO 00000KT 10SM CLR M02/M03 A3003 RMK AO1 =
2017-11-18 03:24 METAR KFME 180824Z AUTO 00000KT 10SM CLR M02/M03 A3004 RMK AO1 =
2017-11-18 03:06 METAR KFME 180806Z AUTO 00000KT 10SM CLR M02/M02 A3005 RMK AO1 =
2017-11-18 02:45 METAR KFME 180745Z AUTO 00000KT 10SM CLR M02/M02 A3005 RMK AO1 =
2017-11-18 02:24 METAR KFME 180724Z AUTO 00000KT 10SM CLR M02/M02 A3006 RMK AO1 =
2017-11-18 02:06 METAR KFME 180706Z AUTO 00000KT 10SM CLR M02/M02 A3006 RMK AO1 =
2017-11-18 01:45 METAR KFME 180645Z AUTO 00000KT 10SM CLR M01/M02 A3007 RMK AO1 =
2017-11-18 01:24 METAR KFME 180624Z AUTO 00000KT 10SM CLR M01/M01 A3008 RMK AO1 =
2017-11-18 01:06 METAR KFME 180606Z AUTO 00000KT 10SM CLR M01/M01 A3009 RMK AO1 =
2017-11-18 00:45 METAR KFME 180545Z AUTO 00000KT 10SM CLR M01/M01 A3010 RMK AO1 =
2017-11-18 00:24 METAR KFME 180524Z AUTO 00000KT 10SM CLR M01/M02 A3011 RMK AO1 =
2017-11-18 00:06 METAR KFME 180506Z AUTO 00000KT 10SM CLR M01/M02 A3012 RMK AO1 =
2017-11-17 23:45 METAR KFME 180445Z AUTO 00000KT 10SM CLR M01/M01 A3013 RMK AO1 =
2017-11-17 23:24 METAR KFME 180424Z AUTO 00000KT 10SM CLR M01/M01 A3013 RMK AO1 =
2017-11-17 23:06 METAR KFME 180406Z AUTO 00000KT 10SM CLR M01/M02 A3013 RMK AO1 =
2017-11-17 22:45 METAR KFME 180345Z AUTO 00000KT 10SM CLR M01/M02 A3013 RMK AO1 =
2017-11-17 22:24 METAR KFME 180324Z AUTO 00000KT 10SM CLR M01/M02 A3013 RMK AO1 =
2017-11-17 22:06 METAR KFME 180306Z AUTO 00000KT 10SM CLR M01/M02 A3014 RMK AO1 =
2017-11-17 21:45 METAR KFME 180245Z AUTO 00000KT 10SM CLR 00/M01 A3014 RMK AO1 =
2017-11-17 21:24 METAR KFME 180224Z AUTO 00000KT 10SM CLR 00/M01 A3014 RMK AO1 =
2017-11-17 21:06 METAR KFME 180206Z AUTO 05004KT 10SM CLR 00/M01 A3014 RMK AO1 =
2017-11-17 20:45 METAR KFME 180145Z AUTO 00000KT 10SM CLR 00/M01 A3014 RMK AO1 =
2017-11-17 20:24 METAR KFME 180124Z AUTO 00000KT 10SM CLR 00/M01 A3015 RMK AO1 =
2017-11-17 20:06 METAR KFME 180106Z AUTO 00000KT 10SM CLR 00/M01 A3015 RMK AO1 =
2017-11-17 19:45 METAR KFME 180045Z AUTO 00000KT 10SM CLR 00/M02 A3016 RMK AO1 =
2017-11-17 19:24 METAR KFME 180024Z AUTO 00000KT 10SM CLR 00/M02 A3016 RMK AO1 =
2017-11-17 19:06 METAR KFME 180006Z AUTO 00000KT 10SM CLR 01/M01 A3016 RMK AO1 =
2017-11-17 18:45 METAR KFME 172345Z AUTO 00000KT 10SM CLR 01/M01 A3017 RMK AO1 =
2017-11-17 18:24 METAR KFME 172324Z AUTO 00000KT 10SM CLR 01/M01 A3017 RMK AO1 =
2017-11-17 18:06 METAR KFME 172306Z AUTO 00000KT 10SM CLR 02/M01 A3017 RMK AO1 =
2017-11-17 17:45 METAR KFME 172245Z AUTO 00000KT 10SM CLR 03/M01 A3017 RMK AO1 =
2017-11-17 17:24 METAR KFME 172224Z AUTO 00000KT 10SM CLR 04/M01 A3017 RMK AO1 =
2017-11-17 17:06 METAR KFME 172206Z AUTO 00000KT 10SM CLR 06/M02 A3017 RMK AO1 =
2017-11-17 16:45 METAR KFME 172145Z AUTO 27003KT 10SM CLR 07/M02 A3016 RMK AO1 =
2017-11-17 16:24 METAR KFME 172124Z AUTO 27003KT 10SM CLR 08/M02 A3016 RMK AO1 =
2017-11-17 16:06 METAR KFME 172106Z AUTO 30006KT 10SM CLR 09/M02 A3017 RMK AO1 =
2017-11-17 15:45 METAR KFME 172045Z AUTO 31004KT 10SM CLR 10/M03 A3016 RMK AO1 =
2017-11-17 15:24 METAR KFME 172024Z AUTO 29005KT 10SM CLR 10/M03 A3016 RMK AO1 =
2017-11-17 15:06 METAR KFME 172006Z AUTO 29006KT 10SM CLR 10/M03 A3016 RMK AO1 =
2017-11-17 14:45 METAR KFME 171945Z AUTO 29009KT 10SM CLR 11/M03 A3017 RMK AO1 =
2017-11-17 14:24 METAR KFME 171924Z AUTO 30005KT 10SM CLR 11/M02 A3017 RMK AO1 =
2017-11-17 14:06 METAR KFME 171906Z AUTO 33003KT 10SM CLR 11/M02 A3017 RMK AO1 =
2017-11-17 13:45 METAR KFME 171845Z AUTO 31008KT 10SM CLR 11/M02 A3017 RMK AO1 =
2017-11-17 13:24 METAR KFME 171824Z AUTO 30006KT 10SM CLR 11/M02 A3018 RMK AO1 =
2017-11-17 13:06 METAR KFME 171806Z AUTO 29004KT 10SM CLR 10/M02 A3018 RMK AO1 =
2017-11-17 12:45 METAR KFME 171745Z AUTO 36005KT 10SM CLR 10/M02 A3019 RMK AO1 =
2017-11-17 12:24 METAR KFME 171724Z AUTO 27008KT 10SM CLR 10/M02 A3020 RMK AO1 =
2017-11-17 11:45 METAR KFME 171645Z AUTO 31007KT 280V340 10SM CLR 10/M01 A3021 RMK AO1 =
2017-11-17 11:24 METAR KFME 171624Z AUTO 33009G15KT 10SM CLR 09/M02 A3022 RMK AO1 =
2017-11-17 11:06 METAR KFME 171606Z AUTO 31009KT 10SM CLR 09/M02 A3023 RMK AO1 =
2017-11-17 10:45 METAR KFME 171545Z AUTO 30007KT 280V340 10SM CLR 08/M01 A3024 RMK AO1 =
2017-11-17 10:24 METAR KFME 171524Z AUTO 34009KT 10SM CLR 08/M01 A3024 RMK AO1 =
2017-11-17 10:06 METAR KFME 171506Z AUTO 33009G15KT 10SM CLR 08/M01 A3024 RMK AO1 =
2017-11-17 09:45 METAR KFME 171445Z AUTO 33007KT 290V350 10SM CLR 07/M01 A3024 RMK AO1 =
2017-11-17 09:24 METAR KFME 171424Z AUTO 31007G15KT 280V340 10SM CLR 07/00 A3023 RMK AO1 =
2017-11-17 09:06 METAR KFME 171406Z AUTO 31005KT 10SM CLR 06/00 A3023 RMK AO1 =
2017-11-17 08:45 METAR KFME 171345Z AUTO 33004KT 10SM CLR 06/00 A3022 RMK AO1 =
2017-11-17 08:24 METAR KFME 171324Z AUTO 32006KT 10SM CLR 05/00 A3022 RMK AO1 =
2017-11-17 08:06 METAR KFME 171306Z AUTO 31005KT 10SM CLR 04/00 A3022 RMK AO1 =
2017-11-17 07:45 METAR KFME 171245Z AUTO 30003KT 10SM CLR 02/M01 A3021 RMK AO1 =
2017-11-17 07:24 METAR KFME 171224Z AUTO 31004KT 10SM CLR 02/M01 A3021 RMK AO1 =
2017-11-17 07:06 METAR KFME 171206Z AUTO 31004KT 10SM CLR 02/M01 A3020 RMK AO1 =

Support USWX by starting your Amazon purchase here.